This is the latest recevied weather packets stored in our database for station/object SR6WXJG. If no packets are shown the sender has not sent any weather packets the latest 10 day(s).
| Time | Temp. | Humidity | Pressure | Rain* | Wind** | Luminosity | Snow |
|---|---|---|---|---|---|---|---|
| 1777779263 | 8.33° C | 68% | 1018 hPa | 0 mm | - | - | - |
| 1777778362 | 8.33° C | 67% | 1018 hPa | 0 mm | - | - | - |
| 1777777462 | 8.33° C | 65% | 1018 hPa | 0 mm | - | - | - |
| 1777776562 | 8.33° C | 65% | 1018 hPa | 0 mm | - | - | - |
| 1777775661 | 8.33° C | 65% | 1018 hPa | 0 mm | - | - | - |
| 1777774761 | 8.89° C | 64% | 1018 hPa | 0 mm | - | - | - |
| 1777773861 | 8.89° C | 62% | 1018 hPa | 0 mm | - | - | - |
| 1777772960 | 8.89° C | 63% | 1018 hPa | 0 mm | - | - | - |
| 1777772060 | 8.89° C | 63% | 1018 hPa | 0 mm | - | - | - |
| 1777771160 | 9.44° C | 61% | 1018 hPa | 0 mm | - | - | - |
| 1777770259 | 9.44° C | 62% | 1019 hPa | 0 mm | - | - | - |
| 1777769359 | 9.44° C | 62% | 1019 hPa | 0 mm | - | - | - |
| 1777768458 | 9.44° C | 62% | 1019 hPa | 0 mm | - | - | - |
| 1777767558 | 10° C | 58% | 1018 hPa | 0 mm | - | - | - |
| 1777766658 | 10° C | 60% | 1019 hPa | 0 mm | - | - | - |
| 1777765757 | 10° C | 60% | 1019 hPa | 0 mm | - | - | - |
| 1777764857 | 10° C | 60% | 1019 hPa | 0 mm | - | - | - |
| 1777763957 | 11.11° C | 55% | 1019 hPa | 0 mm | - | - | - |
| 1777763056 | 11.11° C | 55% | 1019 hPa | 0 mm | - | - | - |
| 1777762156 | 10.56° C | 59% | 1019 hPa | 0 mm | - | - | - |
| 1777761256 | 11.11° C | 59% | 1019 hPa | 0 mm | - | - | - |
| 1777760355 | 11.67° C | 54% | 1019 hPa | 0 mm | - | - | - |
| 1777759455 | 12.22° C | 52% | 1019 hPa | 0 mm | - | - | - |
| 1777758554 | 12.22° C | 56% | 1019 hPa | 0 mm | - | - | - |
| 1777757654 | 12.22° C | 56% | 1019 hPa | 0 mm | - | - | - |
* Rain latest hour (hover to see other rain measurements)
** Current wind speed in m/s (hover to see current wind gust speed)